sensor_id;sensor_type;location;lat;lon;timestamp;pressure;altitude;pressure_sealevel;temperature;humidity
56632;BME280;42503;39.928;-75.152;2023-05-20T00:08:38;102229.94;;;24.41;35.87
56632;BME280;42503;39.928;-75.152;2023-05-20T00:18:39;102236.13;;;24.43;35.58
56632;BME280;42503;39.928;-75.152;2023-05-20T00:28:40;102262.44;;;24.47;35.79
56632;BME280;42503;39.928;-75.152;2023-05-20T00:38:45;102252.63;;;24.44;35.95
56632;BME280;42503;39.928;-75.152;2023-05-20T00:48:46;102268.28;;;24.45;35.73
56632;BME280;42503;39.928;-75.152;2023-05-20T00:58:51;102265.50;;;24.45;35.80
56632;BME280;42503;39.928;-75.152;2023-05-20T01:08:58;102212.44;;;24.13;36.02
56632;BME280;42503;39.928;-75.152;2023-05-20T01:19:01;102284.81;;;24.47;35.91
56632;BME280;42503;39.928;-75.152;2023-05-20T01:29:04;102275.50;;;24.36;35.88
56632;BME280;42503;39.928;-75.152;2023-05-20T01:39:05;102296.28;;;24.45;35.75
56632;BME280;42503;39.928;-75.152;2023-05-20T01:49:08;102290.97;;;24.44;35.94
56632;BME280;42503;39.928;-75.152;2023-05-20T01:59:12;102296.56;;;24.44;36.24
56632;BME280;42503;39.928;-75.152;2023-05-20T02:09:13;102260.84;;;24.19;36.09
56632;BME280;42503;39.928;-75.152;2023-05-20T02:19:15;102263.97;;;24.27;35.95
56632;BME280;42503;39.928;-75.152;2023-05-20T02:29:23;102280.28;;;24.41;36.39
56632;BME280;42503;39.928;-75.152;2023-05-20T02:39:24;102261.50;;;24.36;36.20
56632;BME280;42503;39.928;-75.152;2023-05-20T02:49:25;102259.03;;;24.40;36.16
56632;BME280;42503;39.928;-75.152;2023-05-20T02:59:27;102241.69;;;24.38;36.50
56632;BME280;42503;39.928;-75.152;2023-05-20T03:09:28;102233.53;;;24.36;36.34
56632;BME280;42503;39.928;-75.152;2023-05-20T03:19:30;102189.00;;;24.19;36.43
56632;BME280;42503;39.928;-75.152;2023-05-20T03:29:31;102204.72;;;24.35;36.57
56632;BME280;42503;39.928;-75.152;2023-05-20T03:39:33;102197.16;;;24.36;36.53
56632;BME280;42503;39.928;-75.152;2023-05-20T03:49:37;102190.16;;;24.33;36.72
56632;BME280;42503;39.928;-75.152;2023-05-20T03:59:41;102165.50;;;24.25;36.94
56632;BME280;42503;39.928;-75.152;2023-05-20T04:09:45;102171.34;;;24.19;36.69
56632;BME280;42503;39.928;-75.152;2023-05-20T04:19:49;102171.13;;;24.30;36.61
56632;BME280;42503;39.928;-75.152;2023-05-20T04:29:51;102130.19;;;24.04;37.00
56632;BME280;42503;39.928;-75.152;2023-05-20T04:39:54;102159.66;;;24.32;37.02
56632;BME280;42503;39.928;-75.152;2023-05-20T04:49:56;102129.16;;;24.30;37.03
56632;BME280;42503;39.928;-75.152;2023-05-20T04:59:57;102105.38;;;24.28;36.90
56632;BME280;42503;39.928;-75.152;2023-05-20T05:10:02;102105.38;;;24.28;36.91
56632;BME280;42503;39.928;-75.152;2023-05-20T05:20:03;102091.13;;;24.24;36.95
56632;BME280;42503;39.928;-75.152;2023-05-20T05:30:09;102080.47;;;24.21;37.49
56632;BME280;42503;39.928;-75.152;2023-05-20T05:40:10;102054.72;;;24.14;37.34
56632;BME280;42503;39.928;-75.152;2023-05-20T05:50:15;102048.28;;;24.19;37.33
56632;BME280;42503;39.928;-75.152;2023-05-20T06:00:19;102026.19;;;24.17;37.55
56632;BME280;42503;39.928;-75.152;2023-05-20T06:10:21;101993.19;;;24.09;37.34
56632;BME280;42503;39.928;-75.152;2023-05-20T06:20:22;101990.38;;;24.14;37.56
56632;BME280;42503;39.928;-75.152;2023-05-20T06:30:23;101981.47;;;24.12;37.86
56632;BME280;42503;39.928;-75.152;2023-05-20T06:40:25;101975.84;;;24.12;37.70
56632;BME280;42503;39.928;-75.152;2023-05-20T06:50:29;101945.66;;;24.04;37.77
56632;BME280;42503;39.928;-75.152;2023-05-20T07:00:33;101943.44;;;24.06;38.11
56632;BME280;42503;39.928;-75.152;2023-05-20T07:10:35;101933.38;;;24.10;37.83
56632;BME280;42503;39.928;-75.152;2023-05-20T07:20:37;101933.38;;;24.10;37.94
56632;BME280;42503;39.928;-75.152;2023-05-20T07:30:38;101921.91;;;24.06;38.11
56632;BME280;42503;39.928;-75.152;2023-05-20T07:40:42;101908.19;;;24.05;38.54
56632;BME280;42503;39.928;-75.152;2023-05-20T07:50:44;101905.38;;;24.05;38.33
56632;BME280;42503;39.928;-75.152;2023-05-20T08:00:45;101883.59;;;23.97;38.51
56632;BME280;42503;39.928;-75.152;2023-05-20T08:10:50;101891.97;;;24.02;38.38
56632;BME280;42503;39.928;-75.152;2023-05-20T08:20:51;101848.91;;;23.77;38.76
56632;BME280;42503;39.928;-75.152;2023-05-20T08:30:53;101873.53;;;24.01;38.68
56632;BME280;42503;39.928;-75.152;2023-05-20T08:40:55;101876.88;;;23.98;38.56
56632;BME280;42503;39.928;-75.152;2023-05-20T08:50:57;101855.63;;;23.97;38.43
56632;BME280;42503;39.928;-75.152;2023-05-20T09:00:59;101849.47;;;24.00;38.32
56632;BME280;42503;39.928;-75.152;2023-05-20T09:11:03;101848.63;;;23.99;38.87
56632;BME280;42503;39.928;-75.152;2023-05-20T09:21:05;101819.84;;;23.89;38.99
56632;BME280;42503;39.928;-75.152;2023-05-20T09:31:06;101850.88;;;23.97;38.83
56632;BME280;42503;39.928;-75.152;2023-05-20T09:41:12;101826.84;;;23.96;38.60
56632;BME280;42503;39.928;-75.152;2023-05-20T09:51:15;101816.47;;;23.81;38.52
56632;BME280;42503;39.928;-75.152;2023-05-20T10:01:17;101821.25;;;23.96;38.79
56632;BME280;42503;39.928;-75.152;2023-05-20T10:21:44;101788.78;;;24.00;38.80
56632;BME280;42503;39.928;-75.152;2023-05-20T10:31:56;101792.16;;;24.02;38.47
56632;BME280;42503;39.928;-75.152;2023-05-20T10:42:07;101797.19;;;23.95;39.03
56632;BME280;42503;39.928;-75.152;2023-05-20T10:52:18;101786.84;;;23.91;39.09
56632;BME280;42503;39.928;-75.152;2023-05-20T11:02:19;101747.75;;;23.70;38.65
56632;BME280;42503;39.928;-75.152;2023-05-20T11:12:26;101785.47;;;23.88;38.88
56632;BME280;42503;39.928;-75.152;2023-05-20T11:22:28;101787.97;;;23.95;39.20
56632;BME280;42503;39.928;-75.152;2023-05-20T11:32:29;101784.34;;;23.94;39.01
56632;BME280;42503;39.928;-75.152;2023-05-20T11:42:31;101736.56;;;23.55;38.95
56632;BME280;42503;39.928;-75.152;2023-05-20T11:52:33;101776.78;;;23.90;39.01
56632;BME280;42503;39.928;-75.152;2023-05-20T12:02:34;101785.16;;;23.95;39.31
56632;BME280;42503;39.928;-75.152;2023-05-20T12:12:39;101744.13;;;23.70;39.27
56632;BME280;42503;39.928;-75.152;2023-05-20T12:22:45;101770.06;;;23.91;39.25
56632;BME280;42503;39.928;-75.152;2023-05-20T12:32:52;101767.28;;;23.91;39.57
56632;BME280;42503;39.928;-75.152;2023-05-20T12:42:53;101774.28;;;23.88;39.50
56632;BME280;42503;39.928;-75.152;2023-05-20T12:52:55;101755.56;;;23.83;39.56
56632;BME280;42503;39.928;-75.152;2023-05-20T13:02:56;101740.47;;;23.84;39.67
56632;BME280;42503;39.928;-75.152;2023-05-20T13:12:57;101736.28;;;23.87;39.45
56632;BME280;42503;39.928;-75.152;2023-05-20T13:23:02;101727.31;;;23.85;39.30
56632;BME280;42503;39.928;-75.152;2023-05-20T13:33:03;101701.88;;;23.87;39.94
56632;BME280;42503;39.928;-75.152;2023-05-20T13:43:04;101701.34;;;23.84;39.67
56632;BME280;42503;39.928;-75.152;2023-05-20T13:53:06;101672.84;;;23.72;39.67
56632;BME280;42503;39.928;-75.152;2023-05-20T14:03:14;101687.38;;;23.84;39.85
56632;BME280;42503;39.928;-75.152;2023-05-20T14:13:19;101656.63;;;23.84;39.84
56632;BME280;42503;39.928;-75.152;2023-05-20T14:23:21;101632.63;;;23.73;39.76
56632;BME280;42503;39.928;-75.152;2023-05-20T14:33:22;101595.75;;;23.56;39.42
56632;BME280;42503;39.928;-75.152;2023-05-20T14:43:26;101610.50;;;23.77;39.60
56632;BME280;42503;39.928;-75.152;2023-05-20T14:53:28;101609.06;;;23.90;39.82
56632;BME280;42503;39.928;-75.152;2023-05-20T15:03:29;101611.31;;;23.93;39.91
56632;BME280;42503;39.928;-75.152;2023-05-20T15:13:31;101602.94;;;23.88;39.84
56632;BME280;42503;39.928;-75.152;2023-05-20T15:23:32;101594.25;;;23.94;39.78
56632;BME280;42503;39.928;-75.152;2023-05-20T15:33:36;101572.44;;;23.91;40.29
56632;BME280;42503;39.928;-75.152;2023-05-20T15:43:38;101558.47;;;23.96;40.13
56632;BME280;42503;39.928;-75.152;2023-05-20T15:53:39;101503.22;;;23.73;40.32
56632;BME280;42503;39.928;-75.152;2023-05-20T16:03:41;101528.53;;;24.02;40.78
56632;BME280;42503;39.928;-75.152;2023-05-20T16:13:46;101487.38;;;24.07;41.84
56632;BME280;42503;39.928;-75.152;2023-05-20T16:23:47;101461.41;;;24.07;41.54
56632;BME280;42503;39.928;-75.152;2023-05-20T16:33:48;101444.59;;;24.12;42.03
56632;BME280;42503;39.928;-75.152;2023-05-20T16:43:50;101429.47;;;24.13;42.22
56632;BME280;42503;39.928;-75.152;2023-05-20T16:53:57;101422.22;;;24.12;41.90
56632;BME280;42503;39.928;-75.152;2023-05-20T17:03:59;101407.69;;;24.10;41.75
56632;BME280;42503;39.928;-75.152;2023-05-20T17:14:00;101383.03;;;24.17;41.92
56632;BME280;42503;39.928;-75.152;2023-05-20T17:24:04;101381.34;;;24.16;41.87
56632;BME280;42503;39.928;-75.152;2023-05-20T17:34:06;101367.38;;;24.16;41.60
56632;BME280;42503;39.928;-75.152;2023-05-20T17:44:10;101303.38;;;23.80;41.20
56632;BME280;42503;39.928;-75.152;2023-05-20T17:54:14;101343.09;;;24.12;41.37
56632;BME280;42503;39.928;-75.152;2023-05-20T18:04:16;101331.59;;;24.13;41.12
56632;BME280;42503;39.928;-75.152;2023-05-20T18:14:17;101293.59;;;24.12;40.69
56632;BME280;42503;39.928;-75.152;2023-05-20T18:24:22;101295.56;;;24.12;41.01
56632;BME280;42503;39.928;-75.152;2023-05-20T18:34:23;101274.34;;;24.11;40.68
56632;BME280;42503;39.928;-75.152;2023-05-20T18:44:25;101271.22;;;24.12;40.56
56632;BME280;42503;39.928;-75.152;2023-05-20T18:54:26;101215.13;;;23.74;40.45
56632;BME280;42503;39.928;-75.152;2023-05-20T19:04:28;101232.00;;;23.93;40.57
56632;BME280;42503;39.928;-75.152;2023-05-20T19:14:29;101227.75;;;23.96;40.52
56632;BME280;42503;39.928;-75.152;2023-05-20T19:24:34;101235.53;;;24.04;40.57
56632;BME280;42503;39.928;-75.152;2023-05-20T19:34:35;101221.53;;;24.04;40.25
56632;BME280;42503;39.928;-75.152;2023-05-20T19:44:36;101202.34;;;23.97;40.50
56632;BME280;42503;39.928;-75.152;2023-05-20T19:54:38;101187.47;;;24.02;40.22
56632;BME280;42503;39.928;-75.152;2023-05-20T20:04:41;101172.34;;;24.03;40.04
56632;BME280;42503;39.928;-75.152;2023-05-20T20:14:45;101153.69;;;23.98;39.99
56632;BME280;42503;39.928;-75.152;2023-05-20T20:24:47;101172.84;;;24.10;40.10
56632;BME280;42503;39.928;-75.152;2023-05-20T20:34:49;101173.69;;;24.11;39.89
56632;BME280;42503;39.928;-75.152;2023-05-20T20:44:52;101168.09;;;24.11;40.21
56632;BME280;42503;39.928;-75.152;2023-05-20T20:54:53;101151.31;;;24.11;40.18
56632;BME280;42503;39.928;-75.152;2023-05-20T21:04:56;101144.84;;;24.15;39.94
56632;BME280;42503;39.928;-75.152;2023-05-20T21:14:59;101118.09;;;24.04;39.91
56632;BME280;42503;39.928;-75.152;2023-05-20T21:25:01;101118.28;;;24.13;40.24
56632;BME280;42503;39.928;-75.152;2023-05-20T21:35:02;101116.31;;;24.13;40.10
56632;BME280;42503;39.928;-75.152;2023-05-20T21:45:04;101117.47;;;24.12;40.11
56632;BME280;42503;39.928;-75.152;2023-05-20T21:55:07;101106.78;;;24.14;39.80
56632;BME280;42503;39.928;-75.152;2023-05-20T22:05:09;101069.31;;;23.96;39.74
56632;BME280;42503;39.928;-75.152;2023-05-20T22:15:16;101073.88;;;24.11;39.96
56632;BME280;42503;39.928;-75.152;2023-05-20T22:25:18;101081.94;;;24.13;40.00
56632;BME280;42503;39.928;-75.152;2023-05-20T22:35:19;101063.28;;;24.08;40.46
56632;BME280;42503;39.928;-75.152;2023-05-20T22:45:22;101064.09;;;24.08;40.18
56632;BME280;42503;39.928;-75.152;2023-05-20T22:55:23;101078.00;;;24.14;40.25
56632;BME280;42503;39.928;-75.152;2023-05-20T23:05:24;101067.66;;;24.14;40.12
56632;BME280;42503;39.928;-75.152;2023-05-20T23:15:26;101067.66;;;24.14;39.79
56632;BME280;42503;39.928;-75.152;2023-05-20T23:25:27;101062.91;;;24.15;40.18
56632;BME280;42503;39.928;-75.152;2023-05-20T23:35:29;101074.63;;;24.17;40.01
56632;BME280;42503;39.928;-75.152;2023-05-20T23:45:30;101091.81;;;24.29;40.07
56632;BME280;42503;39.928;-75.152;2023-05-20T23:55:31;101090.13;;;24.28;39.67
